Adri Lab — WDF2836 — position and weather

sailwx.info

Track history (hours):
 
Tides and Currents Weather Stations Pressure Air Temp Water Temp Dewpoint Dewpoint Depression Visibility Wind Speed Wind Dir Waves Ship Positions

Adri Lab

Owner: LABORDE BROTHERS CREWBOATS LLC, MORGAN CITY, LA. More information available from US FCC via Universal Licensing System and Coast Guard Vessel Documentation Center.

Last reported at 2017-Nov-16 08:09 UTC. Time now 2017-Nov-22 01:45 UTC.
Position N 29°34' W 092°18'.

Length 44 m; draft 2.5 m.

Type: Cargo ship. MMSI: 268112000.

Date/timePositionNaut miles runAvg speedWind from/ knotsBaromVisibWave heightAir tempDewpointWater temp
2017-Nov-16 08:09N 29°34' W 092°18'411.9
2017-Nov-16 07:47N 29°38' W 092°16'312.2
2017-Nov-16 07:30N 29°41' W 092°15'611.3
2017-Nov-16 07:00N 29°46' W 092°11'3 5.8
2017-Nov-16 06:30N 29°48' W 092°09'0 0.0
2017-Nov-16 06:00N 29°48' W 092°09'0 0.0
2017-Nov-16 05:30N 29°48' W 092°09'2 4.3
2017-Nov-16 05:00N 29°47' W 092°11'0 0.0
2017-Nov-16 04:30N 29°47' W 092°11'0 0.0
2017-Nov-16 04:00N 29°47' W 092°11'0 0.0
2017-Nov-16 03:30N 29°47' W 092°11'0 0.0
2017-Nov-16 03:00N 29°47' W 092°11'1 3.0
2017-Nov-16 02:31N 29°45' W 092°12'  
2017-Nov-12 09:37N 29°34' W 092°18'420.2
2017-Nov-12 09:25N 29°38' W 092°16'1022.7
2017-Nov-12 08:59N 29°46' W 092°11'2 4.6
2017-Nov-12 08:29N 29°48' W 092°09'16 0.3
2017-Nov-10 05:47N 29°34' W 092°18'415.9
2017-Nov-10 05:31N 29°38' W 092°16'1019.8
2017-Nov-10 05:00N 29°47' W 092°10'2 3.3
2017-Nov-10 04:30N 29°48' W 092°09'0 0.0
2017-Nov-10 04:00N 29°48' W 092°09'0 0.0
2017-Nov-10 03:30N 29°48' W 092°09'0 0.0
2017-Nov-10 03:00N 29°48' W 092°09'0 0.0
2017-Nov-10 02:30N 29°48' W 092°09'0 0.0
2017-Nov-10 02:00N 29°48' W 092°09'0 0.0
2017-Nov-10 01:30N 29°48' W 092°09'0 0.0
2017-Nov-10 01:00N 29°48' W 092°09'0 0.0
2017-Nov-10 00:30N 29°48' W 092°09'0 0.0
2017-Nov-10 00:00N 29°48' W 092°09'0 0.0
2017-Nov-09 23:30N 29°48' W 092°09'0 0.0
2017-Nov-09 23:00N 29°48' W 092°09'0 0.0
2017-Nov-09 22:30N 29°48' W 092°09'0 0.0
2017-Nov-09 22:00N 29°48' W 092°09'0 0.0
2017-Nov-09 21:30N 29°48' W 092°09'0 0.0
2017-Nov-09 21:00N 29°48' W 092°09'0 0.0
2017-Nov-09 20:30N 29°48' W 092°09'0 0.0
2017-Nov-09 20:00N 29°48' W 092°09'0 0.0
2017-Nov-09 19:30N 29°48' W 092°09'0 0.0
2017-Nov-09 19:00N 29°48' W 092°09'0 0.0
2017-Nov-09 18:30N 29°48' W 092°09'0 0.0
2017-Nov-09 18:00N 29°48' W 092°09'0 0.0
2017-Nov-09 17:30N 29°48' W 092°09'0 0.0
2017-Nov-09 17:00N 29°48' W 092°09'0 0.0
2017-Nov-09 16:30N 29°48' W 092°09'0 0.0
2017-Nov-09 15:57N 29°48' W 092°09'0 0.0
2017-Nov-09 15:30N 29°48' W 092°09'0 0.0
2017-Nov-09 15:00N 29°48' W 092°09'0 0.0
2017-Nov-09 14:30N 29°48' W 092°09'0 0.0
2017-Nov-09 13:57N 29°48' W 092°09'1 3.0
2017-Nov-09 13:30N 29°47' W 092°10'1 1.7
2017-Nov-09 12:58N 29°47' W 092°11'0 0.0
2017-Nov-09 12:28N 29°47' W 092°11'0 0.0
2017-Nov-09 12:00N 29°47' W 092°11'2 4.1
2017-Nov-09 11:30N 29°48' W 092°09'0 0.0
2017-Nov-09 11:00N 29°48' W 092°09'0 0.0
2017-Nov-09 10:30N 29°48' W 092°09'0 0.0
2017-Nov-09 10:00N 29°48' W 092°09'0 0.0
2017-Nov-09 09:30N 29°48' W 092°09'0 0.0
2017-Nov-09 09:00N 29°48' W 092°09'0 0.0
2017-Nov-09 08:30N 29°48' W 092°09'0 0.0
2017-Nov-09 08:00N 29°48' W 092°09'0 0.0
2017-Nov-09 07:30N 29°48' W 092°09'0 0.0
2017-Nov-09 07:00N 29°48' W 092°09'0 0.0
2017-Nov-09 06:30N 29°48' W 092°09'0 0.0
2017-Nov-09 06:00N 29°48' W 092°09'0 0.0
2017-Nov-09 05:30N 29°48' W 092°09'0 0.0
2017-Nov-09 05:00N 29°48' W 092°09'0 0.0
2017-Nov-09 04:30N 29°48' W 092°09'0 0.0
2017-Nov-09 04:00N 29°48' W 092°09'0 0.0
2017-Nov-09 03:30N 29°48' W 092°09'1 2.6
2017-Nov-09 03:00N 29°47' W 092°10'  
Track history (hours):
 
Tides and Currents Weather Stations Pressure Air Temp Water Temp Dewpoint Dewpoint Depression Visibility Wind Speed Wind Dir Waves Ship Positions

Adri Lab

Owner: LABORDE BROTHERS CREWBOATS LLC, MORGAN CITY, LA. More information available from US FCC via Universal Licensing System and Coast Guard Vessel Documentation Center.

Last reported at 2017-Nov-16 08:09 UTC. Time now 2017-Nov-22 01:45 UTC.
Position N 29°34' W 092°18'.

Length 44 m; draft 2.5 m.

Type: Cargo ship. MMSI: 268112000.

Date/timePositionNaut miles runAvg speedWind from/ knotsBaromVisibWave heightAir tempDewpointWater temp
2017-Nov-16 08:09N 29°34' W 092°18'411.9
2017-Nov-16 07:47N 29°38' W 092°16'312.2
2017-Nov-16 07:30N 29°41' W 092°15'611.3
2017-Nov-16 07:00N 29°46' W 092°11'3 5.8
2017-Nov-16 06:30N 29°48' W 092°09'0 0.0
2017-Nov-16 06:00N 29°48' W 092°09'0 0.0
2017-Nov-16 05:30N 29°48' W 092°09'2 4.3
2017-Nov-16 05:00N 29°47' W 092°11'0 0.0
2017-Nov-16 04:30N 29°47' W 092°11'0 0.0
2017-Nov-16 04:00N 29°47' W 092°11'0 0.0
2017-Nov-16 03:30N 29°47' W 092°11'0 0.0
2017-Nov-16 03:00N 29°47' W 092°11'1 3.0
2017-Nov-16 02:31N 29°45' W 092°12'  
2017-Nov-12 09:37N 29°34' W 092°18'420.2
2017-Nov-12 09:25N 29°38' W 092°16'1022.7
2017-Nov-12 08:59N 29°46' W 092°11'2 4.6
2017-Nov-12 08:29N 29°48' W 092°09'16 0.3
2017-Nov-10 05:47N 29°34' W 092°18'415.9
2017-Nov-10 05:31N 29°38' W 092°16'1019.8
2017-Nov-10 05:00N 29°47' W 092°10'2 3.3
2017-Nov-10 04:30N 29°48' W 092°09'0 0.0
2017-Nov-10 04:00N 29°48' W 092°09'0 0.0
2017-Nov-10 03:30N 29°48' W 092°09'0 0.0
2017-Nov-10 03:00N 29°48' W 092°09'0 0.0
2017-Nov-10 02:30N 29°48' W 092°09'0 0.0
2017-Nov-10 02:00N 29°48' W 092°09'0 0.0
2017-Nov-10 01:30N 29°48' W 092°09'0 0.0
2017-Nov-10 01:00N 29°48' W 092°09'0 0.0
2017-Nov-10 00:30N 29°48' W 092°09'0 0.0
2017-Nov-10 00:00N 29°48' W 092°09'0 0.0
2017-Nov-09 23:30N 29°48' W 092°09'0 0.0
2017-Nov-09 23:00N 29°48' W 092°09'0 0.0
2017-Nov-09 22:30N 29°48' W 092°09'0 0.0
2017-Nov-09 22:00N 29°48' W 092°09'0 0.0
2017-Nov-09 21:30N 29°48' W 092°09'0 0.0
2017-Nov-09 21:00N 29°48' W 092°09'0 0.0
2017-Nov-09 20:30N 29°48' W 092°09'0 0.0
2017-Nov-09 20:00N 29°48' W 092°09'0 0.0
2017-Nov-09 19:30N 29°48' W 092°09'0 0.0
2017-Nov-09 19:00N 29°48' W 092°09'0 0.0
2017-Nov-09 18:30N 29°48' W 092°09'0 0.0
2017-Nov-09 18:00N 29°48' W 092°09'0 0.0
2017-Nov-09 17:30N 29°48' W 092°09'0 0.0
2017-Nov-09 17:00N 29°48' W 092°09'0 0.0
2017-Nov-09 16:30N 29°48' W 092°09'0 0.0
2017-Nov-09 15:57N 29°48' W 092°09'0 0.0
2017-Nov-09 15:30N 29°48' W 092°09'0 0.0
2017-Nov-09 15:00N 29°48' W 092°09'0 0.0
2017-Nov-09 14:30N 29°48' W 092°09'0 0.0
2017-Nov-09 13:57N 29°48' W 092°09'1 3.0
2017-Nov-09 13:30N 29°47' W 092°10'1 1.7
2017-Nov-09 12:58N 29°47' W 092°11'0 0.0
2017-Nov-09 12:28N 29°47' W 092°11'0 0.0
2017-Nov-09 12:00N 29°47' W 092°11'2 4.1
2017-Nov-09 11:30N 29°48' W 092°09'0 0.0
2017-Nov-09 11:00N 29°48' W 092°09'0 0.0
2017-Nov-09 10:30N 29°48' W 092°09'0 0.0
2017-Nov-09 10:00N 29°48' W 092°09'0 0.0
2017-Nov-09 09:30N 29°48' W 092°09'0 0.0
2017-Nov-09 09:00N 29°48' W 092°09'0 0.0
2017-Nov-09 08:30N 29°48' W 092°09'0 0.0
2017-Nov-09 08:00N 29°48' W 092°09'0 0.0
2017-Nov-09 07:30N 29°48' W 092°09'0 0.0
2017-Nov-09 07:00N 29°48' W 092°09'0 0.0
2017-Nov-09 06:30N 29°48' W 092°09'0 0.0
2017-Nov-09 06:00N 29°48' W 092°09'0 0.0
2017-Nov-09 05:30N 29°48' W 092°09'0 0.0
2017-Nov-09 05:00N 29°48' W 092°09'0 0.0
2017-Nov-09 04:30N 29°48' W 092°09'0 0.0
2017-Nov-09 04:00N 29°48' W 092°09'0 0.0
2017-Nov-09 03:30N 29°48' W 092°09'1 2.6
2017-Nov-09 03:00N 29°47' W 092°10'  

Dump ship's entire track history